Terminal Aerodrome Forecast
Issued by NWS Raleigh/Durham, NC

Home | Current Version | Previous Version | Text Only | Print | Product List | Glossary On
Versions: 1 2 3 4 5 6 7 8 9 10 11 12 13 14
000
FTUS42 KRAH 230537
TAFFAY
TAF
KFAY 230537Z 2306/2406 07006KT P6SM OVC250
     FM231200 06005KT P6SM OVC070
     FM231500 10009KT P6SM OVC050
      TEMPO 2315/2318 P6SM -RA OVC050
     FM231900 09011G22KT 5SM -RA BR OVC025
     FM232300 08013G25KT 4SM -RA BR OVC015
     FM240300 08015G25KT 1 1/2SM -RA BR OVC007=

USA.gov is the U.S. government's official web portal to all federal, state and local government web resources and services.